createdAt,value
2023-02-27T00:01:39.290Z,99730.63
2023-02-27T00:04:06.743Z,99734.44
2023-02-27T00:06:33.558Z,99732.63
2023-02-27T00:09:00.900Z,99738.00
2023-02-27T00:11:29.153Z,99737.09
2023-02-27T00:13:56.346Z,99734.28
2023-02-27T00:16:23.498Z,99742.28
2023-02-27T00:18:50.255Z,99750.53
2023-02-27T00:21:19.230Z,99745.53
2023-02-27T00:23:46.059Z,99754.69
2023-02-27T00:26:39.371Z,99758.88
2023-02-27T00:29:10.922Z,99771.03
2023-02-27T00:31:38.416Z,99766.72
2023-02-27T00:34:05.348Z,99769.88
2023-02-27T00:36:32.216Z,99766.72
2023-02-27T00:38:59.107Z,99766.66
2023-02-27T00:41:26.288Z,99774.19
2023-02-27T00:43:54.318Z,99776.13
2023-02-27T00:46:24.948Z,99781.28
2023-02-27T00:48:51.814Z,99769.25
2023-02-27T00:51:20.327Z,99781.53
2023-02-27T00:53:47.208Z,99780.50
2023-02-27T00:56:15.396Z,99781.09
2023-02-27T00:58:42.149Z,99782.47
2023-02-27T01:01:09.522Z,99784.03
2023-02-27T01:03:36.431Z,99787.84
2023-02-27T01:06:03.304Z,99783.09
2023-02-27T01:08:30.224Z,99790.31
2023-02-27T01:10:58.777Z,99791.00
2023-02-27T01:13:26.398Z,99779.66
2023-02-27T01:15:53.424Z,99793.59
2023-02-27T01:18:20.256Z,99790.44
2023-02-27T01:20:53.184Z,99791.44
2023-02-27T01:23:21.601Z,99793.44
2023-02-27T01:25:51.426Z,99786.47
2023-02-27T01:28:18.249Z,99798.63
2023-02-27T01:30:48.877Z,99787.66
2023-02-27T01:33:17.366Z,99790.06
2023-02-27T01:35:44.374Z,99799.22
2023-02-27T01:38:12.315Z,99791.56
2023-02-27T01:40:44.349Z,99795.19
2023-02-27T01:43:18.045Z,99789.06
2023-02-27T01:48:39.863Z,99785.69
2023-02-27T01:51:33.074Z,99792.09
2023-02-27T01:54:04.356Z,99788.44
2023-02-27T01:56:32.656Z,99788.56
2023-02-27T01:59:03.956Z,99790.22
2023-02-27T02:01:33.348Z,99787.06
2023-02-27T02:04:26.758Z,99785.47
2023-02-27T02:07:12.123Z,99785.91
2023-02-27T02:09:51.297Z,99790.44
2023-02-27T02:12:21.219Z,99788.50
2023-02-27T02:14:51.064Z,99791.44
2023-02-27T02:17:26.848Z,99792.00
2023-02-27T02:20:55.697Z,99792.16
2023-02-27T02:23:56.356Z,99791.56
2023-02-27T02:30:08.427Z,99792.28
2023-02-27T02:32:59.756Z,99789.94
2023-02-27T02:36:05.349Z,99787.06
2023-02-27T02:38:56.457Z,99783.53
2023-02-27T02:41:24.062Z,99788.13
2023-02-27T02:44:19.382Z,99788.44
2023-02-27T02:46:56.650Z,99788.44
2023-02-27T02:49:53.419Z,99799.63
2023-02-27T02:52:50.032Z,99797.41
2023-02-27T02:58:35.420Z,99810.22
2023-02-27T03:01:17.101Z,99807.63
2023-02-27T03:04:27.807Z,99809.13
2023-02-27T03:07:30.569Z,99814.66
2023-02-27T03:10:14.296Z,99814.16
2023-02-27T03:12:47.198Z,99813.72
2023-02-27T03:15:24.326Z,99815.16
2023-02-27T03:18:02.172Z,99824.38
2023-02-27T03:20:41.384Z,99827.50
2023-02-27T03:23:19.835Z,99824.22
2023-02-27T03:25:53.345Z,99829.31
2023-02-27T03:29:01.078Z,99828.97
2023-02-27T03:31:42.639Z,99831.53
2023-02-27T03:34:27.531Z,99840.91
2023-02-27T03:37:04.366Z,99851.81
2023-02-27T03:39:45.151Z,99849.81
2023-02-27T03:42:17.508Z,99848.72
2023-02-27T03:45:41.349Z,99851.53
2023-02-27T03:48:13.711Z,99847.59
2023-02-27T03:50:40.687Z,99851.75
2023-02-27T03:53:20.869Z,99858.50
2023-02-27T03:55:49.080Z,99855.19
2023-02-27T03:58:15.948Z,99857.28
2023-02-27T04:00:43.425Z,99854.63
2023-02-27T04:03:13.899Z,99852.31
2023-02-27T04:05:43.955Z,99858.44
2023-02-27T04:08:32.260Z,99867.91
2023-02-27T04:11:25.003Z,99861.72
2023-02-27T04:14:11.764Z,99875.50
2023-02-27T04:17:02.378Z,99871.53
2023-02-27T04:19:55.272Z,99866.22
2023-02-27T04:22:27.456Z,99863.28
2023-02-27T04:25:03.692Z,99865.22
2023-02-27T04:28:07.425Z,99867.38
2023-02-27T04:30:52.634Z,99869.19
2023-02-27T04:33:26.883Z,99877.59
2023-02-27T04:36:02.176Z,99877.22
2023-02-27T04:41:52.448Z,99880.22
2023-02-27T04:44:21.752Z,99883.19
2023-02-27T04:49:54.467Z,99873.03
2023-02-27T04:52:40.896Z,99875.78
2023-02-27T04:55:33.177Z,99873.19
2023-02-27T04:58:10.824Z,99878.38
2023-02-27T05:00:41.404Z,99879.31
2023-02-27T05:03:22.766Z,99882.53
2023-02-27T05:05:52.352Z,99880.78
2023-02-27T05:08:34.936Z,99887.16
2023-02-27T05:11:23.520Z,99893.72
2023-02-27T05:14:12.091Z,99898.47
2023-02-27T05:16:45.536Z,99898.44
2023-02-27T05:19:13.597Z,99910.94
2023-02-27T05:21:49.317Z,99905.81
2023-02-27T05:24:22.717Z,99910.56
2023-02-27T05:27:12.277Z,99899.81
2023-02-27T05:30:09.228Z,99907.84
2023-02-27T05:32:57.544Z,99905.25
2023-02-27T05:35:51.838Z,99909.84
2023-02-27T05:38:30.585Z,99914.63
2023-02-27T05:41:09.262Z,99923.59
2023-02-27T05:43:51.453Z,99920.91
2023-02-27T05:46:24.600Z,99924.28
2023-02-27T05:49:08.594Z,99933.09
2023-02-27T05:51:39.191Z,99944.47
2023-02-27T05:54:17.009Z,99947.66
2023-02-27T05:56:49.814Z,99949.03
2023-02-27T05:59:43.557Z,99949.00
2023-02-27T06:02:12.465Z,99947.47
2023-02-27T06:04:40.603Z,99964.41
2023-02-27T06:07:13.247Z,99969.78
2023-02-27T06:09:42.506Z,99959.44
2023-02-27T06:12:11.431Z,99969.91
2023-02-27T06:14:38.851Z,99966.22
2023-02-27T06:17:05.698Z,99965.91
2023-02-27T06:19:33.436Z,99974.63
2023-02-27T06:22:00.156Z,99982.28
2023-02-27T06:24:27.884Z,99978.69
2023-02-27T06:26:56.008Z,99975.19
2023-02-27T06:29:22.977Z,99993.88
2023-02-27T06:31:53.529Z,99982.25
2023-02-27T06:34:20.977Z,99987.19
2023-02-27T06:36:47.684Z,99998.06
2023-02-27T06:39:39.524Z,99996.47
2023-02-27T06:42:07.144Z,100000.88
2023-02-27T06:44:37.494Z,100004.47
2023-02-27T06:47:07.965Z,100008.28
2023-02-27T06:49:34.826Z,100010.03
2023-02-27T06:52:26.546Z,100017.00
2023-02-27T06:55:18.482Z,100015.63
2023-02-27T06:57:49.394Z,100016.38
2023-02-27T07:00:18.522Z,100018.56
2023-02-27T07:02:45.413Z,100018.53
2023-02-27T07:05:12.283Z,100015.31
2023-02-27T07:07:41.431Z,100020.28
2023-02-27T07:10:12.081Z,100018.13
2023-02-27T07:12:41.569Z,100029.06
2023-02-27T07:15:09.760Z,100020.72
2023-02-27T07:17:37.159Z,100025.47
2023-02-27T07:20:06.411Z,100032.81
2023-02-27T07:22:34.092Z,100035.81
2023-02-27T07:25:02.548Z,100037.50
2023-02-27T07:27:29.506Z,100033.34
2023-02-27T07:30:22.505Z,100039.06
2023-02-27T07:32:49.364Z,100043.97
2023-02-27T07:35:16.468Z,100049.16
2023-02-27T07:37:43.456Z,100040.78
2023-02-27T07:40:14.585Z,100041.53
2023-02-27T07:42:41.449Z,100039.47
2023-02-27T07:45:09.049Z,100032.63
2023-02-27T07:47:36.443Z,100036.59
2023-02-27T07:50:05.366Z,100038.50
2023-02-27T07:52:32.565Z,100046.63
2023-02-27T07:55:00.481Z,100032.53
2023-02-27T07:57:27.323Z,100043.69
2023-02-27T07:59:54.530Z,100045.41
2023-02-27T08:02:23.739Z,100043.34
2023-02-27T08:04:51.392Z,100042.78
2023-02-27T08:07:19.131Z,100042.66
2023-02-27T08:09:45.855Z,100048.56
2023-02-27T08:12:13.959Z,100048.97
2023-02-27T08:14:40.815Z,100050.41
2023-02-27T08:17:09.870Z,100050.41
2023-02-27T08:19:37.883Z,100042.84
2023-02-27T08:22:29.628Z,100058.09
2023-02-27T08:24:57.005Z,100053.72
2023-02-27T08:27:24.519Z,100054.59
2023-02-27T08:29:51.917Z,100059.84
2023-02-27T08:32:20.587Z,100057.47
2023-02-27T08:34:47.381Z,100051.91
2023-02-27T08:40:31.458Z,100047.38
2023-02-27T08:42:58.212Z,100050.19
2023-02-27T08:45:26.543Z,100059.09
2023-02-27T08:47:53.333Z,100055.50
2023-02-27T08:50:22.802Z,100058.44
2023-02-27T08:52:50.675Z,100062.66
2023-02-27T08:55:17.537Z,100056.44
2023-02-27T08:57:44.257Z,100063.16
2023-02-27T09:00:12.072Z,100065.81
2023-02-27T09:02:38.841Z,100058.03
2023-02-27T09:05:09.349Z,100062.19
2023-02-27T09:07:36.339Z,100056.44
2023-02-27T09:10:03.981Z,100056.94
2023-02-27T09:18:43.543Z,100064.88
2023-02-27T09:21:10.641Z,100070.00
2023-02-27T09:23:37.888Z,100071.78
2023-02-27T09:26:05.478Z,100060.09
2023-02-27T09:28:33.168Z,100066.09
2023-02-27T09:31:05.474Z,100067.25
2023-02-27T09:33:35.341Z,100077.66
2023-02-27T09:36:02.533Z,100080.03
2023-02-27T09:38:29.393Z,100076.25
2023-02-27T09:40:57.506Z,100078.56
2023-02-27T09:43:34.558Z,100075.47
2023-02-27T09:46:04.589Z,100085.69
2023-02-27T09:48:47.595Z,100082.09
2023-02-27T09:51:16.918Z,100092.31
2023-02-27T09:53:47.450Z,100088.94
2023-02-27T09:56:23.479Z,100091.38
2023-02-27T09:59:18.609Z,100085.19
2023-02-27T10:01:50.610Z,100092.56
2023-02-27T10:04:25.331Z,100088.94
2023-02-27T10:07:05.704Z,100093.03
2023-02-27T10:09:56.842Z,100086.03
2023-02-27T10:12:56.613Z,100085.16
2023-02-27T10:15:52.149Z,100085.88
2023-02-27T10:18:29.052Z,100092.88
2023-02-27T10:21:10.762Z,100089.44
2023-02-27T10:24:26.441Z,100100.69
2023-02-27T10:26:59.014Z,100106.94
2023-02-27T10:29:40.683Z,100096.41
2023-02-27T10:32:14.975Z,100101.41
2023-02-27T10:34:46.524Z,100105.22
2023-02-27T10:37:16.395Z,100112.28
2023-02-27T10:39:48.554Z,100106.66
2023-02-27T10:42:17.426Z,100100.81
2023-02-27T10:44:45.634Z,100092.81
2023-02-27T10:47:15.650Z,100091.03
2023-02-27T10:49:43.932Z,100097.94
2023-02-27T10:52:13.995Z,100091.03
2023-02-27T10:54:42.333Z,100086.91
2023-02-27T11:00:57.161Z,100078.44
2023-02-27T11:03:27.469Z,100078.44
2023-02-27T11:06:05.578Z,100082.88
2023-02-27T11:08:34.196Z,100074.28
2023-02-27T11:14:22.929Z,100072.63
2023-02-27T11:16:55.117Z,100069.59
2023-02-27T11:19:27.706Z,100078.97
2023-02-27T11:22:21.706Z,100065.22
2023-02-27T11:24:49.610Z,100073.22
2023-02-27T11:27:29.249Z,100068.22
2023-02-27T11:29:57.546Z,100076.94
2023-02-27T11:32:31.025Z,100070.75
2023-02-27T11:34:59.520Z,100064.22
2023-02-27T11:37:35.263Z,100074.00
2023-02-27T11:40:35.605Z,100078.47
2023-02-27T11:43:17.216Z,100072.16
2023-02-27T11:46:13.870Z,100063.34
2023-02-27T11:49:21.975Z,100065.81
2023-02-27T11:52:09.212Z,100060.75
2023-02-27T11:54:50.756Z,100051.88
2023-02-27T11:57:31.606Z,100052.22
2023-02-27T12:00:03.225Z,100044.59
2023-02-27T12:02:48.502Z,100042.16
2023-02-27T12:05:25.544Z,100047.59
2023-02-27T12:11:14.320Z,100042.84
2023-02-27T12:13:47.608Z,100050.41
2023-02-27T12:16:43.982Z,100049.16
2023-02-27T12:19:40.964Z,100050.06
2023-02-27T12:22:24.717Z,100062.22
2023-02-27T12:25:07.707Z,100057.50
2023-02-27T12:28:02.446Z,100066.16
2023-02-27T12:30:45.584Z,100060.53
2023-02-27T12:33:32.608Z,100066.16
2023-02-27T12:36:05.064Z,100062.09
2023-02-27T12:38:33.190Z,100059.84
2023-02-27T12:41:09.134Z,100058.75
2023-02-27T12:43:50.870Z,100050.28
2023-02-27T12:46:25.570Z,100037.56
2023-02-27T12:49:33.357Z,100045.09
2023-02-27T12:52:14.700Z,100051.97
2023-02-27T12:55:08.959Z,100057.50
2023-02-27T12:57:36.611Z,100062.75
2023-02-27T13:00:09.564Z,100070.63
2023-02-27T13:03:14.649Z,100069.69
2023-02-27T13:05:43.766Z,100074.88
2023-02-27T13:08:43.525Z,100073.66
2023-02-27T13:11:22.384Z,100071.84
2023-02-27T13:13:59.638Z,100071.09
2023-02-27T13:17:00.893Z,100069.16
2023-02-27T13:19:43.591Z,100066.56
2023-02-27T13:22:56.828Z,100059.03
2023-02-27T13:25:26.587Z,100058.22
2023-02-27T13:28:02.116Z,100055.78
2023-02-27T13:33:34.960Z,100052.94
2023-02-27T13:36:24.177Z,100052.47
2023-02-27T13:38:57.647Z,100047.94
2023-02-27T13:41:24.453Z,100056.16
2023-02-27T13:44:20.602Z,100055.13
2023-02-27T13:46:48.407Z,100048.50
2023-02-27T13:49:29.470Z,100059.03
2023-02-27T13:51:59.523Z,100059.94
2023-02-27T13:54:32.589Z,100059.94
2023-02-27T13:57:15.098Z,100069.66
2023-02-27T13:59:46.612Z,100063.47
2023-02-27T14:02:29.330Z,100071.16
2023-02-27T14:05:03.196Z,100064.59
2023-02-27T14:07:47.134Z,100060.63
2023-02-27T14:10:26.536Z,100062.53
2023-02-27T14:12:56.824Z,100057.78
2023-02-27T14:15:23.531Z,100066.81
2023-02-27T14:18:12.311Z,100057.94
2023-02-27T14:20:41.052Z,100062.41
2023-02-27T14:23:23.801Z,100065.78
2023-02-27T14:25:57.948Z,100065.00
2023-02-27T14:28:48.646Z,100074.13
2023-02-27T14:31:32.055Z,100077.19
2023-02-27T14:34:02.284Z,100075.22
2023-02-27T14:36:33.316Z,100079.97
2023-02-27T14:39:31.671Z,100078.97
2023-02-27T14:42:04.860Z,100077.97
2023-02-27T14:44:40.643Z,100083.94
2023-02-27T14:47:18.000Z,100071.75
2023-02-27T14:49:49.642Z,100076.53
2023-02-27T14:52:24.749Z,100072.56
2023-02-27T14:54:52.782Z,100073.06
2023-02-27T14:57:26.759Z,100078.31
2023-02-27T14:59:55.492Z,100077.31
2023-02-27T15:02:47.642Z,100082.13
2023-02-27T15:05:25.674Z,100079.78
2023-02-27T15:07:53.843Z,100092.16
2023-02-27T15:10:30.514Z,100092.09
2023-02-27T15:13:43.861Z,100087.25
2023-02-27T15:16:31.468Z,100099.00
2023-02-27T15:19:17.837Z,100105.06
2023-02-27T15:21:50.374Z,100099.28
2023-02-27T15:24:26.881Z,100098.50
2023-02-27T15:27:04.619Z,100102.09
2023-02-27T15:29:38.250Z,100101.53
2023-02-27T15:32:06.667Z,100097.72
2023-02-27T15:34:35.599Z,100095.81
2023-02-27T15:37:07.683Z,100106.44
2023-02-27T15:39:38.452Z,100102.75
2023-02-27T15:44:59.754Z,100107.00
2023-02-27T15:47:29.947Z,100116.81
2023-02-27T15:50:10.238Z,100121.75
2023-02-27T15:52:54.244Z,100117.38
2023-02-27T15:55:53.938Z,100118.81
2023-02-27T15:58:25.614Z,100115.88
2023-02-27T16:01:23.769Z,100128.19
2023-02-27T16:04:14.351Z,100132.00
2023-02-27T16:06:50.031Z,100121.75
2023-02-27T16:09:28.606Z,100126.59
2023-02-27T16:12:11.979Z,100124.59
2023-02-27T16:14:44.862Z,100131.13
2023-02-27T16:17:36.751Z,100132.38
2023-02-27T16:20:47.168Z,100135.41
2023-02-27T16:23:14.684Z,100141.56
2023-02-27T16:25:43.351Z,100135.31
2023-02-27T16:28:16.693Z,100140.50
2023-02-27T16:30:44.283Z,100145.78
2023-02-27T16:33:23.693Z,100143.63
2023-02-27T16:35:51.218Z,100152.78
2023-02-27T16:38:18.234Z,100154.78
2023-02-27T16:40:45.735Z,100153.31
2023-02-27T16:43:12.840Z,100159.19
2023-02-27T16:45:53.718Z,100167.53
2023-02-27T16:48:51.303Z,100162.56
2023-02-27T16:51:25.091Z,100169.97
2023-02-27T16:53:56.177Z,100176.38
2023-02-27T16:56:37.359Z,100178.19
2023-02-27T16:59:06.187Z,100183.97
2023-02-27T17:01:38.067Z,100199.53
2023-02-27T17:04:30.800Z,100199.72
2023-02-27T17:07:05.406Z,100193.75
2023-02-27T17:09:34.102Z,100208.31
2023-02-27T17:12:02.164Z,100193.75
2023-02-27T17:14:30.164Z,100202.31
2023-02-27T17:17:00.426Z,100201.09
2023-02-27T17:19:29.338Z,100208.88
2023-02-27T17:21:56.577Z,100206.28
2023-02-27T17:24:24.849Z,100212.69
2023-02-27T17:26:52.631Z,100210.09
2023-02-27T17:29:20.301Z,100210.53
2023-02-27T17:31:47.708Z,100213.13
2023-02-27T17:34:15.519Z,100222.22
2023-02-27T17:36:43.538Z,100223.25
2023-02-27T17:39:14.531Z,100227.47
2023-02-27T17:41:46.845Z,100232.53
2023-02-27T17:44:14.759Z,100233.16
2023-02-27T17:46:41.997Z,100244.16
2023-02-27T17:49:11.535Z,100243.50
2023-02-27T17:51:38.683Z,100250.88
2023-02-27T17:54:07.123Z,100247.13
2023-02-27T17:59:28.125Z,100250.50
2023-02-27T18:02:20.674Z,100250.88
2023-02-27T18:04:51.023Z,100247.50
2023-02-27T18:07:43.360Z,100256.28
2023-02-27T18:10:12.572Z,100261.06
2023-02-27T18:12:39.933Z,100262.50
2023-02-27T18:15:10.379Z,100263.06
2023-02-27T18:17:41.104Z,100259.91
2023-02-27T18:20:11.878Z,100265.34
2023-02-27T18:22:39.651Z,100266.06
2023-02-27T18:25:10.747Z,100277.69
2023-02-27T18:27:38.992Z,100281.44
2023-02-27T18:30:07.263Z,100276.88
2023-02-27T18:32:37.143Z,100291.88
2023-02-27T18:35:05.211Z,100281.91
2023-02-27T18:37:34.451Z,100286.09
2023-02-27T18:40:05.323Z,100284.09
2023-02-27T18:42:37.175Z,100292.28
2023-02-27T18:45:05.361Z,100293.72
2023-02-27T18:47:33.321Z,100297.94
2023-02-27T18:52:57.542Z,100291.72
2023-02-27T18:55:27.653Z,100295.34
2023-02-27T18:57:56.220Z,100303.34
2023-02-27T19:00:25.036Z,100299.38
2023-02-27T19:02:52.878Z,100302.75
2023-02-27T19:05:20.918Z,100304.78
2023-02-27T19:07:53.082Z,100304.19
2023-02-27T19:10:20.966Z,100309.72
2023-02-27T19:12:50.663Z,100311.34
2023-02-27T19:15:17.835Z,100301.22
2023-02-27T19:17:45.544Z,100313.16
2023-02-27T19:20:13.675Z,100308.19
2023-02-27T19:22:41.476Z,100306.53
2023-02-27T19:25:10.336Z,100316.13
2023-02-27T19:27:39.102Z,100313.75
2023-02-27T19:30:08.821Z,100315.97
2023-02-27T19:32:36.232Z,100313.56
2023-02-27T19:35:04.878Z,100314.53
2023-02-27T19:37:33.308Z,100318.19
2023-02-27T19:40:01.796Z,100316.16
2023-02-27T19:42:29.780Z,100321.78
2023-02-27T19:44:57.476Z,100324.81
2023-02-27T19:47:24.625Z,100323.78
2023-02-27T19:49:52.485Z,100327.97
2023-02-27T19:52:20.562Z,100325.00
2023-02-27T19:54:48.388Z,100328.59
2023-02-27T19:57:15.818Z,100334.97
2023-02-27T19:59:43.768Z,100339.38
2023-02-27T20:02:12.241Z,100336.78
2023-02-27T20:04:39.999Z,100332.81
2023-02-27T20:07:07.961Z,100337.78
2023-02-27T20:09:35.755Z,100337.38
2023-02-27T20:12:03.769Z,100342.75
2023-02-27T20:14:31.641Z,100328.25
2023-02-27T20:17:00.689Z,100338.44
2023-02-27T20:19:28.501Z,100339.22
2023-02-27T20:21:57.371Z,100336.81
2023-02-27T20:24:26.588Z,100340.81
2023-02-27T20:26:54.834Z,100344.41
2023-02-27T20:29:24.878Z,100347.56
2023-02-27T20:31:54.334Z,100347.00
2023-02-27T20:34:26.560Z,100355.75
2023-02-27T20:36:56.809Z,100352.59
2023-02-27T20:39:24.351Z,100344.41
2023-02-27T20:41:55.361Z,100355.97
2023-02-27T20:44:22.825Z,100348.41
2023-02-27T20:46:50.507Z,100355.22
2023-02-27T20:49:27.780Z,100350.81
2023-02-27T20:51:56.316Z,100350.66
2023-02-27T20:54:24.726Z,100358.84
2023-02-27T20:56:52.837Z,100357.28
2023-02-27T20:59:24.291Z,100363.06
2023-02-27T21:01:52.886Z,100359.28
2023-02-27T21:04:22.866Z,100355.72
2023-02-27T21:06:51.374Z,100368.25
2023-02-27T21:09:18.869Z,100367.44
2023-02-27T21:11:46.202Z,100364.44
2023-02-27T21:14:13.467Z,100355.88
2023-02-27T21:16:40.573Z,100363.63
2023-02-27T21:19:08.613Z,100360.84
2023-02-27T21:21:36.773Z,100360.66
2023-02-27T21:24:04.106Z,100360.06
2023-02-27T21:26:35.978Z,100365.63
2023-02-27T21:29:13.044Z,100363.81
2023-02-27T21:31:42.361Z,100359.50
2023-02-27T21:34:13.116Z,100354.31
2023-02-27T21:36:42.280Z,100357.88
2023-02-27T21:39:13.482Z,100359.09
2023-02-27T21:41:41.068Z,100364.69
2023-02-27T21:44:11.674Z,100368.06
2023-02-27T21:46:39.573Z,100367.28
2023-02-27T21:49:06.968Z,100361.88
2023-02-27T21:51:40.524Z,100366.91
2023-02-27T21:54:11.407Z,100360.53
2023-02-27T21:56:39.334Z,100367.13
2023-02-27T21:59:06.541Z,100373.69
2023-02-27T22:01:33.919Z,100377.50
2023-02-27T22:04:01.159Z,100375.47
2023-02-27T22:06:34.280Z,100378.06
2023-02-27T22:09:03.626Z,100382.69
2023-02-27T22:11:31.646Z,100380.28
2023-02-27T22:13:58.602Z,100379.47
2023-02-27T22:16:25.613Z,100373.28
2023-02-27T22:18:52.741Z,100380.69
2023-02-27T22:21:22.760Z,100388.84
2023-02-27T22:23:50.754Z,100381.47
2023-02-27T22:26:20.315Z,100388.03
2023-02-27T22:28:47.214Z,100384.50
2023-02-27T22:31:16.851Z,100377.28
2023-02-27T22:33:45.702Z,100383.66
2023-02-27T22:36:18.116Z,100373.69
2023-02-27T22:38:45.104Z,100378.31
2023-02-27T22:41:14.096Z,100376.72
2023-02-27T22:43:41.686Z,100367.16
2023-02-27T22:46:10.111Z,100369.16
2023-02-27T22:48:37.478Z,100369.75
2023-02-27T22:51:13.289Z,100373.53
2023-02-27T22:53:41.129Z,100369.94
2023-02-27T22:56:10.627Z,100369.56
2023-02-27T22:58:39.758Z,100366.97
2023-02-27T23:01:18.806Z,100380.50
2023-02-27T23:03:47.707Z,100370.53
2023-02-27T23:06:17.944Z,100374.72
2023-02-27T23:08:45.283Z,100375.56
2023-02-27T23:11:13.747Z,100375.75
2023-02-27T23:13:41.380Z,100367.97
2023-02-27T23:16:08.936Z,100372.56
2023-02-27T23:18:35.912Z,100370.38
2023-02-27T23:21:06.059Z,100366.41
2023-02-27T23:23:32.823Z,100372.97
2023-02-27T23:26:03.338Z,100369.19
2023-02-27T23:28:30.517Z,100367.19
2023-02-27T23:30:57.370Z,100372.59
2023-02-27T23:33:24.259Z,100372.19
2023-02-27T23:35:51.146Z,100368.41
2023-02-27T23:38:18.236Z,100370.19
2023-02-27T23:40:45.047Z,100370.59
2023-02-27T23:43:11.886Z,100374.56
2023-02-27T23:45:38.892Z,100371.19
2023-02-27T23:48:06.153Z,100369.41
2023-02-27T23:50:38.350Z,100375.75
2023-02-27T23:53:06.901Z,100374.19
2023-02-27T23:55:36.900Z,100378.56
2023-02-27T23:58:07.276Z,100373.22
